createdAt,value
2017-07-30T00:02:10.458Z,23.70
2017-07-30T00:04:37.362Z,23.80
2017-07-30T00:07:04.665Z,23.80
2017-07-30T00:09:31.942Z,23.60
2017-07-30T00:11:58.852Z,23.70
2017-07-30T00:14:25.819Z,23.50
2017-07-30T00:16:53.157Z,23.50
2017-07-30T00:19:20.043Z,23.50
2017-07-30T00:21:46.976Z,23.50
2017-07-30T00:24:13.861Z,23.50
2017-07-30T00:26:40.843Z,23.50
2017-07-30T00:29:07.796Z,23.40
2017-07-30T00:31:35.129Z,23.30
2017-07-30T00:34:02.077Z,23.30
2017-07-30T00:36:29.001Z,23.10
2017-07-30T00:38:55.969Z,23.20
2017-07-30T00:41:22.914Z,23.10
2017-07-30T00:43:49.829Z,23.00
2017-07-30T00:46:16.806Z,23.10
2017-07-30T00:48:43.718Z,23.00
2017-07-30T00:51:10.609Z,23.00
2017-07-30T00:53:37.913Z,22.90
2017-07-30T00:56:04.833Z,22.90
2017-07-30T00:58:31.772Z,22.80
2017-07-30T01:00:58.657Z,22.70
2017-07-30T01:03:25.641Z,22.60
2017-07-30T01:05:52.585Z,22.40
2017-07-30T01:08:19.530Z,22.40
2017-07-30T01:10:46.477Z,22.50
2017-07-30T01:13:13.621Z,22.50
2017-07-30T01:15:40.631Z,22.40
2017-07-30T01:18:07.525Z,22.40
2017-07-30T01:20:34.889Z,22.30
2017-07-30T01:23:02.248Z,22.30
2017-07-30T01:25:29.595Z,22.10
2017-07-30T01:27:56.949Z,22.10
2017-07-30T01:30:24.301Z,22.00
2017-07-30T01:32:51.246Z,22.10
2017-07-30T01:35:18.198Z,22.10
2017-07-30T01:37:45.549Z,22.10
2017-07-30T01:40:12.508Z,22.10
2017-07-30T01:42:39.799Z,22.10
2017-07-30T01:45:06.710Z,22.10
2017-07-30T01:47:33.984Z,22.10
2017-07-30T01:50:01.001Z,22.10
2017-07-30T01:52:27.886Z,22.10
2017-07-30T01:54:54.768Z,22.10
2017-07-30T01:57:21.674Z,22.10
2017-07-30T01:59:48.557Z,22.10
2017-07-30T02:02:15.888Z,22.20
2017-07-30T02:04:42.773Z,22.20
2017-07-30T02:07:09.785Z,22.20
2017-07-30T02:09:36.908Z,22.20
2017-07-30T02:12:03.822Z,22.20
2017-07-30T02:14:30.770Z,22.10
2017-07-30T02:16:57.785Z,22.20
2017-07-30T02:19:24.674Z,22.20
2017-07-30T02:21:51.585Z,22.20
2017-07-30T02:24:18.845Z,22.20
2017-07-30T02:26:45.749Z,22.10
2017-07-30T02:29:12.693Z,22.00
2017-07-30T02:31:39.637Z,22.00
2017-07-30T02:34:06.589Z,22.00
2017-07-30T02:36:33.943Z,22.00
2017-07-30T02:39:00.857Z,22.00
2017-07-30T02:41:27.837Z,22.00
2017-07-30T02:43:54.781Z,22.00
2017-07-30T02:46:21.729Z,22.00
2017-07-30T02:48:48.669Z,22.00
2017-07-30T02:51:15.594Z,22.00
2017-07-30T02:53:42.571Z,22.00
2017-07-30T02:56:09.521Z,22.00
2017-07-30T02:58:36.845Z,22.00
2017-07-30T03:01:03.765Z,22.00
2017-07-30T03:03:30.773Z,22.00
2017-07-30T03:05:58.126Z,21.90
2017-07-30T03:08:25.062Z,21.90
2017-07-30T03:10:52.013Z,21.90
2017-07-30T03:13:18.957Z,21.90
2017-07-30T03:15:45.901Z,21.90
2017-07-30T03:18:12.853Z,21.90
2017-07-30T03:20:40.199Z,21.80
2017-07-30T03:23:07.554Z,21.70
2017-07-30T03:25:34.901Z,21.60
2017-07-30T03:28:01.851Z,21.60
2017-07-30T03:30:28.729Z,21.60
2017-07-30T03:32:55.746Z,21.60
2017-07-30T03:35:23.094Z,21.50
2017-07-30T03:37:50.033Z,21.60
2017-07-30T03:40:16.945Z,21.60
2017-07-30T03:42:43.927Z,21.60
2017-07-30T03:45:10.881Z,21.60
2017-07-30T03:47:38.214Z,21.70
2017-07-30T03:50:05.101Z,21.70
2017-07-30T03:52:32.117Z,21.60
2017-07-30T03:54:59.009Z,21.70
2017-07-30T03:57:25.961Z,21.70
2017-07-30T03:59:52.850Z,21.60
2017-07-30T04:02:19.850Z,21.60
2017-07-30T04:04:46.742Z,21.60
2017-07-30T04:07:13.633Z,21.60
2017-07-30T04:09:40.585Z,21.60
2017-07-30T04:12:07.941Z,21.50
2017-07-30T04:14:34.893Z,21.60
2017-07-30T04:17:02.245Z,21.70
2017-07-30T04:19:29.136Z,21.70
2017-07-30T04:21:56.013Z,21.80
2017-07-30T04:24:22.930Z,21.70
2017-07-30T04:26:49.821Z,21.70
2017-07-30T04:29:16.773Z,21.60
2017-07-30T04:31:43.658Z,21.60
2017-07-30T04:34:10.561Z,21.70
2017-07-30T04:36:37.989Z,21.80
2017-07-30T04:39:04.965Z,21.90
2017-07-30T04:41:31.926Z,22.00
2017-07-30T04:43:59.202Z,22.30
2017-07-30T04:46:26.133Z,22.30
2017-07-30T04:48:53.401Z,22.40
2017-07-30T04:51:20.318Z,22.40
2017-07-30T04:53:47.669Z,22.60
2017-07-30T04:56:14.550Z,22.60
2017-07-30T04:58:41.439Z,22.70
2017-07-30T05:01:08.401Z,22.80
2017-07-30T05:03:35.353Z,22.90
2017-07-30T05:06:02.241Z,23.00
2017-07-30T05:08:29.145Z,23.10
2017-07-30T05:10:56.089Z,23.20
2017-07-30T05:13:23.033Z,23.40
2017-07-30T05:15:50.257Z,23.50
2017-07-30T05:18:17.233Z,23.60
2017-07-30T05:20:44.183Z,23.60
2017-07-30T05:23:11.130Z,23.70
2017-07-30T05:25:38.082Z,23.70
2017-07-30T05:28:05.361Z,23.90
2017-07-30T05:30:32.377Z,23.90
2017-07-30T05:32:59.316Z,24.00
2017-07-30T05:35:26.473Z,24.00
2017-07-30T05:37:53.358Z,24.10
2017-07-30T05:40:20.241Z,24.00
2017-07-30T05:42:47.210Z,24.00
2017-07-30T05:45:14.773Z,24.00
2017-07-30T05:47:41.717Z,24.00
2017-07-30T05:50:08.668Z,24.00
2017-07-30T05:52:35.615Z,24.10
2017-07-30T05:55:03.373Z,24.00
2017-07-30T05:57:30.258Z,24.00
2017-07-30T05:59:57.281Z,24.00
2017-07-30T06:02:25.550Z,24.10
2017-07-30T06:04:52.497Z,24.10
2017-07-30T06:07:19.441Z,24.10
2017-07-30T06:09:46.386Z,24.20
2017-07-30T06:12:13.334Z,24.20
2017-07-30T06:14:40.277Z,24.20
2017-07-30T06:17:07.305Z,24.20
2017-07-30T06:19:34.269Z,24.30
2017-07-30T06:22:01.186Z,24.40
2017-07-30T06:24:28.168Z,24.50
2017-07-30T06:26:55.122Z,24.60
2017-07-30T06:29:22.481Z,24.70
2017-07-30T06:31:49.760Z,24.80
2017-07-30T06:34:16.643Z,24.80
2017-07-30T06:36:43.926Z,24.80
2017-07-30T06:39:10.813Z,24.80
2017-07-30T06:41:37.718Z,24.90
2017-07-30T06:44:04.666Z,25.00
2017-07-30T06:46:31.946Z,25.00
2017-07-30T06:48:58.862Z,25.00
2017-07-30T06:51:25.813Z,25.00
2017-07-30T06:53:53.106Z,25.00
2017-07-30T06:56:20.112Z,25.00
2017-07-30T06:58:47.061Z,25.00
2017-07-30T07:01:14.413Z,25.00
2017-07-30T07:03:41.401Z,25.00
2017-07-30T07:06:08.286Z,25.10
2017-07-30T07:08:35.172Z,25.20
2017-07-30T07:11:02.505Z,25.10
2017-07-30T07:13:29.404Z,25.10
2017-07-30T07:15:56.285Z,25.10
2017-07-30T07:18:23.248Z,25.00
2017-07-30T07:20:50.599Z,25.20
2017-07-30T07:23:17.477Z,25.20
2017-07-30T07:25:44.490Z,25.20
2017-07-30T07:28:11.446Z,25.10
2017-07-30T07:30:38.794Z,24.90
2017-07-30T07:33:05.737Z,24.90
2017-07-30T07:35:32.681Z,24.80
2017-07-30T07:37:59.630Z,24.80
2017-07-30T07:40:26.549Z,25.00
2017-07-30T07:42:53.526Z,25.20
2017-07-30T07:45:20.473Z,25.30
2017-07-30T07:47:47.421Z,25.30
2017-07-30T07:50:14.306Z,25.40
2017-07-30T07:52:41.186Z,25.60
2017-07-30T07:55:08.160Z,25.50
2017-07-30T07:57:35.514Z,25.80
2017-07-30T08:00:02.469Z,25.70
2017-07-30T08:02:29.809Z,25.90
2017-07-30T08:04:56.759Z,25.90
2017-07-30T08:07:23.673Z,26.00
2017-07-30T08:09:50.858Z,26.00
2017-07-30T08:12:17.801Z,26.00
2017-07-30T08:14:44.749Z,26.20
2017-07-30T08:17:11.696Z,26.00
2017-07-30T08:19:38.593Z,25.60
2017-07-30T08:22:05.789Z,25.70
2017-07-30T08:24:33.149Z,26.00
2017-07-30T08:27:00.094Z,26.20
2017-07-30T08:29:27.146Z,26.30
2017-07-30T08:31:54.034Z,26.50
2017-07-30T08:34:21.242Z,26.70
2017-07-30T08:36:48.197Z,26.90
2017-07-30T08:39:15.541Z,26.60
2017-07-30T08:41:42.457Z,26.60
2017-07-30T08:44:09.342Z,26.70
2017-07-30T08:46:36.736Z,27.10
2017-07-30T08:49:03.683Z,27.10
2017-07-30T08:51:30.762Z,27.20
2017-07-30T08:53:57.742Z,27.20
2017-07-30T08:56:25.070Z,27.20
2017-07-30T08:58:52.034Z,27.20
2017-07-30T09:01:18.986Z,27.20
2017-07-30T09:03:45.901Z,27.20
2017-07-30T09:06:12.874Z,27.20
2017-07-30T09:08:39.841Z,27.20
2017-07-30T09:11:07.277Z,27.70
2017-07-30T09:13:34.158Z,27.70
2017-07-30T09:16:01.069Z,28.00
2017-07-30T09:18:28.629Z,28.20
2017-07-30T09:20:55.629Z,28.00
2017-07-30T09:23:22.509Z,27.90
2017-07-30T09:25:49.426Z,28.10
2017-07-30T09:28:16.366Z,28.00
2017-07-30T09:30:43.249Z,28.00
2017-07-30T09:33:10.133Z,27.70
2017-07-30T09:35:37.100Z,27.50
2017-07-30T09:38:03.981Z,27.10
2017-07-30T09:40:30.898Z,27.30
2017-07-30T09:42:57.841Z,27.60
2017-07-30T09:45:24.994Z,27.80
2017-07-30T09:47:51.948Z,28.20
2017-07-30T09:50:19.292Z,28.60
2017-07-30T09:52:46.245Z,28.60
2017-07-30T09:55:13.525Z,28.50
2017-07-30T09:57:40.410Z,28.50
2017-07-30T10:00:07.313Z,28.50
2017-07-30T10:02:34.202Z,28.50
2017-07-30T10:05:01.178Z,28.60
2017-07-30T10:07:28.125Z,28.60
2017-07-30T10:09:55.069Z,28.60
2017-07-30T10:12:22.119Z,28.60
2017-07-30T10:14:48.998Z,28.40
2017-07-30T10:17:15.908Z,28.20
2017-07-30T10:19:42.854Z,28.20
2017-07-30T10:22:09.737Z,28.10
2017-07-30T10:24:36.646Z,28.00
2017-07-30T10:27:03.969Z,27.90
2017-07-30T10:29:30.945Z,27.90
2017-07-30T10:31:57.835Z,27.90
2017-07-30T10:34:24.794Z,28.00
2017-07-30T10:36:51.673Z,28.20
2017-07-30T10:39:18.557Z,28.50
2017-07-30T10:41:45.579Z,29.00
2017-07-30T10:44:12.457Z,29.10
2017-07-30T10:46:39.369Z,29.10
2017-07-30T10:49:06.318Z,29.10
2017-07-30T10:51:33.265Z,29.20
2017-07-30T10:54:00.214Z,29.00
2017-07-30T10:56:27.253Z,28.90
2017-07-30T10:58:54.218Z,28.80
2017-07-30T11:01:21.561Z,28.80
2017-07-30T11:03:48.445Z,28.80
2017-07-30T11:06:15.354Z,28.80
2017-07-30T11:08:42.297Z,28.70
2017-07-30T11:11:09.208Z,28.50
2017-07-30T11:13:36.194Z,28.20
2017-07-30T11:16:03.143Z,28.10
2017-07-30T11:18:30.473Z,28.20
2017-07-30T11:20:57.441Z,28.20
2017-07-30T11:23:24.392Z,28.40
2017-07-30T11:25:51.304Z,28.80
2017-07-30T11:28:18.281Z,29.10
2017-07-30T11:30:45.329Z,29.20
2017-07-30T11:33:12.257Z,29.20
2017-07-30T11:35:39.220Z,29.20
2017-07-30T11:38:06.165Z,28.90
2017-07-30T11:40:33.518Z,28.10
2017-07-30T11:43:00.469Z,28.10
2017-07-30T11:45:27.354Z,28.00
2017-07-30T11:47:54.265Z,27.70
2017-07-30T11:50:21.207Z,27.60
2017-07-30T11:52:48.157Z,27.30
2017-07-30T11:55:15.201Z,27.10
2017-07-30T11:57:42.084Z,26.90
2017-07-30T12:00:08.995Z,26.80
2017-07-30T12:02:35.942Z,26.70
2017-07-30T12:05:02.885Z,26.60
2017-07-30T12:07:29.833Z,26.80
2017-07-30T12:09:56.781Z,27.10
2017-07-30T12:12:23.726Z,27.30
2017-07-30T12:14:50.669Z,27.40
2017-07-30T12:17:17.613Z,27.60
2017-07-30T12:19:44.561Z,27.70
2017-07-30T12:22:11.446Z,27.60
2017-07-30T12:24:38.362Z,27.60
2017-07-30T12:27:05.641Z,27.50
2017-07-30T12:29:32.973Z,27.30
2017-07-30T12:31:59.854Z,27.30
2017-07-30T12:34:26.761Z,27.30
2017-07-30T12:36:53.712Z,27.30
2017-07-30T12:39:20.661Z,27.40
2017-07-30T12:41:47.602Z,27.30
2017-07-30T12:44:14.549Z,27.50
2017-07-30T12:46:41.497Z,27.80
2017-07-30T12:49:08.442Z,27.90
2017-07-30T12:51:35.349Z,28.10
2017-07-30T12:54:02.265Z,28.50
2017-07-30T12:56:29.181Z,28.50
2017-07-30T12:58:56.066Z,28.40
2017-07-30T13:01:23.001Z,28.40
2017-07-30T13:03:50.017Z,28.30
2017-07-30T13:06:16.898Z,28.10
2017-07-30T13:08:43.781Z,28.00
2017-07-30T13:11:10.754Z,28.10
2017-07-30T13:13:37.643Z,28.30
2017-07-30T13:16:04.545Z,28.30
2017-07-30T13:18:31.495Z,28.40
2017-07-30T13:20:58.437Z,28.40
2017-07-30T13:23:25.386Z,28.30
2017-07-30T13:25:52.290Z,28.30
2017-07-30T13:28:19.170Z,28.10
2017-07-30T13:30:46.079Z,28.00
2017-07-30T13:33:13.069Z,27.90
2017-07-30T13:35:39.953Z,27.80
2017-07-30T13:38:06.957Z,27.40
2017-07-30T13:40:33.905Z,27.50
2017-07-30T13:43:00.789Z,27.40
2017-07-30T13:45:27.705Z,27.40
2017-07-30T13:47:55.057Z,27.20
2017-07-30T13:50:21.998Z,27.20
2017-07-30T13:52:48.950Z,27.10
2017-07-30T13:55:15.829Z,27.00
2017-07-30T13:57:42.737Z,27.00
2017-07-30T14:00:09.653Z,26.90
2017-07-30T14:02:36.537Z,27.00
2017-07-30T14:05:03.881Z,27.00
2017-07-30T14:07:30.833Z,27.00
2017-07-30T14:09:58.180Z,26.90
2017-07-30T14:12:25.135Z,26.90
2017-07-30T14:14:52.081Z,27.00
2017-07-30T14:17:19.026Z,27.10
2017-07-30T14:19:45.969Z,27.00
2017-07-30T14:22:12.919Z,26.90
2017-07-30T14:24:39.839Z,26.90
2017-07-30T14:27:06.809Z,27.00
2017-07-30T14:29:33.755Z,27.20
2017-07-30T14:32:00.750Z,27.30
2017-07-30T14:34:27.633Z,27.40
2017-07-30T14:36:55.516Z,27.60
2017-07-30T14:39:22.464Z,27.60
2017-07-30T14:41:49.409Z,27.60
2017-07-30T14:44:16.293Z,27.80
2017-07-30T14:46:43.302Z,27.80
2017-07-30T14:49:10.642Z,27.40
2017-07-30T14:51:37.585Z,27.40
2017-07-30T14:54:04.475Z,27.40
2017-07-30T14:56:31.377Z,27.60
2017-07-30T14:58:58.341Z,27.80
2017-07-30T15:01:25.677Z,27.10
2017-07-30T15:03:52.557Z,27.10
2017-07-30T15:06:19.565Z,26.70
2017-07-30T15:08:46.623Z,26.80
2017-07-30T15:11:13.978Z,27.80
2017-07-30T15:13:40.927Z,27.80
2017-07-30T15:16:07.874Z,28.10
2017-07-30T15:18:34.794Z,28.20
2017-07-30T15:21:01.766Z,28.40
2017-07-30T15:23:28.705Z,28.30
2017-07-30T15:25:55.625Z,27.50
2017-07-30T15:28:22.741Z,27.50
2017-07-30T15:30:49.621Z,27.80
2017-07-30T15:33:16.595Z,27.80
2017-07-30T15:35:43.542Z,27.50
2017-07-30T15:38:10.489Z,27.40
2017-07-30T15:40:37.447Z,27.60
2017-07-30T15:43:04.789Z,28.00
2017-07-30T15:45:31.738Z,28.00
2017-07-30T15:47:58.691Z,28.20
2017-07-30T15:50:26.045Z,28.10
2017-07-30T15:52:52.953Z,28.10
2017-07-30T15:55:19.857Z,28.30
2017-07-30T15:57:46.774Z,28.10
2017-07-30T16:00:13.681Z,28.10
2017-07-30T16:02:40.569Z,28.20
2017-07-30T16:05:07.521Z,28.50
2017-07-30T16:07:34.872Z,29.20
2017-07-30T16:10:02.155Z,29.10
2017-07-30T16:12:29.173Z,29.10
2017-07-30T16:14:56.057Z,29.20
2017-07-30T16:17:22.964Z,29.10
2017-07-30T16:19:49.873Z,29.00
2017-07-30T16:22:16.857Z,29.10
2017-07-30T16:24:43.801Z,28.90
2017-07-30T16:27:10.748Z,29.10
2017-07-30T16:29:37.697Z,29.30
2017-07-30T16:32:04.578Z,29.80
2017-07-30T16:34:31.502Z,30.50
2017-07-30T16:36:58.785Z,31.90
2017-07-30T16:39:25.688Z,31.90
2017-07-30T16:41:52.630Z,32.70
2017-07-30T16:44:19.585Z,33.20
2017-07-30T16:46:46.941Z,34.20
2017-07-30T16:49:14.265Z,34.70
2017-07-30T16:51:41.234Z,34.70
2017-07-30T16:54:08.186Z,34.70
2017-07-30T16:56:35.093Z,34.70
2017-07-30T16:59:02.002Z,34.80
2017-07-30T17:01:28.917Z,34.70
2017-07-30T17:03:55.873Z,34.80
2017-07-30T17:06:23.222Z,35.00
2017-07-30T17:08:50.174Z,35.00
2017-07-30T17:11:17.081Z,35.00
2017-07-30T17:13:44.065Z,34.90
2017-07-30T17:16:10.953Z,34.70
2017-07-30T17:18:37.897Z,34.30
2017-07-30T17:21:04.901Z,34.10
2017-07-30T17:23:31.849Z,34.40
2017-07-30T17:25:58.794Z,35.00
2017-07-30T17:28:26.150Z,34.80
2017-07-30T17:30:53.101Z,34.80
2017-07-30T17:33:20.449Z,33.50
2017-07-30T17:35:47.369Z,33.50
2017-07-30T17:38:14.278Z,33.00
2017-07-30T17:40:41.201Z,32.60
2017-07-30T17:43:08.555Z,32.30
2017-07-30T17:45:35.903Z,32.30
2017-07-30T17:48:02.845Z,32.30
2017-07-30T17:50:29.789Z,32.60
2017-07-30T17:52:56.693Z,33.30
2017-07-30T17:55:23.680Z,33.80
2017-07-30T17:57:50.566Z,34.20
2017-07-30T18:00:17.473Z,34.50
2017-07-30T18:02:44.396Z,34.90
2017-07-30T18:05:11.369Z,35.00
2017-07-30T18:07:38.726Z,34.40
2017-07-30T18:10:05.674Z,34.40
2017-07-30T18:12:32.621Z,33.80
2017-07-30T18:14:59.569Z,33.00
2017-07-30T18:17:26.482Z,32.10
2017-07-30T18:19:53.365Z,31.60
2017-07-30T18:22:20.646Z,31.00
2017-07-30T18:24:47.657Z,31.00
2017-07-30T18:27:14.539Z,30.60
2017-07-30T18:29:41.483Z,30.30
2017-07-30T18:32:08.417Z,29.80
2017-07-30T18:34:35.767Z,29.20
2017-07-30T18:37:03.091Z,29.00
2017-07-30T18:39:29.998Z,29.00
2017-07-30T18:41:57.006Z,28.90
2017-07-30T18:44:24.357Z,28.60
2017-07-30T18:46:51.273Z,28.60
2017-07-30T18:49:18.253Z,28.40
2017-07-30T18:51:45.605Z,27.90
2017-07-30T18:54:12.550Z,27.90
2017-07-30T18:56:39.500Z,27.80
2017-07-30T18:59:06.468Z,27.60
2017-07-30T19:01:33.801Z,27.40
2017-07-30T19:04:00.682Z,27.40
2017-07-30T19:06:27.596Z,27.40
2017-07-30T19:08:54.944Z,27.20
2017-07-30T19:11:21.894Z,27.20
2017-07-30T19:13:48.837Z,27.20
2017-07-30T19:16:15.720Z,27.20
2017-07-30T19:18:42.657Z,27.00
2017-07-30T19:21:09.573Z,27.00
2017-07-30T19:23:36.525Z,26.90
2017-07-30T19:26:03.466Z,26.90
2017-07-30T19:28:30.416Z,26.90
2017-07-30T19:30:57.776Z,26.60
2017-07-30T19:33:25.125Z,26.50
2017-07-30T19:35:52.038Z,26.50
2017-07-30T19:38:19.025Z,26.50
2017-07-30T19:40:45.994Z,26.10
2017-07-30T19:43:13.324Z,25.40
2017-07-30T19:45:40.213Z,25.40
2017-07-30T19:48:07.114Z,25.40
2017-07-30T19:50:34.056Z,25.50
2017-07-30T19:53:01.006Z,25.40
2017-07-30T19:55:27.919Z,25.20
2017-07-30T19:57:54.950Z,25.10
2017-07-30T20:00:21.962Z,25.10
2017-07-30T20:02:49.306Z,24.80
2017-07-30T20:05:16.252Z,24.80
2017-07-30T20:07:43.133Z,24.70
2017-07-30T20:10:10.141Z,24.90
2017-07-30T20:12:37.089Z,25.10
2017-07-30T20:15:04.038Z,25.10
2017-07-30T20:17:30.982Z,25.20
2017-07-30T20:19:57.909Z,25.30
2017-07-30T20:22:24.878Z,25.50
2017-07-30T20:24:51.818Z,25.60
2017-07-30T20:27:19.202Z,25.50
2017-07-30T20:29:46.125Z,25.50
2017-07-30T20:32:13.073Z,25.50
2017-07-30T20:34:40.014Z,25.60
2017-07-30T20:37:06.897Z,25.50
2017-07-30T20:39:33.905Z,25.60
2017-07-30T20:42:00.854Z,25.50
2017-07-30T20:44:27.801Z,25.50
2017-07-30T20:46:54.749Z,25.40
2017-07-30T20:49:21.635Z,25.40
2017-07-30T20:51:48.508Z,25.40
2017-07-30T20:54:15.485Z,25.30
2017-07-30T20:56:42.437Z,25.20
2017-07-30T20:59:09.753Z,25.20
2017-07-30T21:01:36.638Z,25.20
2017-07-30T21:04:04.034Z,25.20
2017-07-30T21:06:31.037Z,25.20
2017-07-30T21:08:57.922Z,25.20
2017-07-30T21:11:24.930Z,25.10
2017-07-30T21:13:51.873Z,25.00
2017-07-30T21:16:18.822Z,25.00
2017-07-30T21:18:45.769Z,24.90
2017-07-30T21:21:12.717Z,25.00
2017-07-30T21:23:39.602Z,25.00
2017-07-30T21:26:06.529Z,24.90
2017-07-30T21:28:33.860Z,24.70
2017-07-30T21:31:00.806Z,24.70
2017-07-30T21:33:27.734Z,24.70
2017-07-30T21:35:54.617Z,24.60
2017-07-30T21:38:21.545Z,24.40
2017-07-30T21:40:48.489Z,24.30
2017-07-30T21:43:15.437Z,24.30
2017-07-30T21:45:42.341Z,24.10
2017-07-30T21:48:09.257Z,24.10
2017-07-30T21:50:36.173Z,24.10
2017-07-30T21:53:03.125Z,24.20
2017-07-30T21:55:30.065Z,24.20
2017-07-30T21:57:56.955Z,24.10
2017-07-30T22:00:23.868Z,24.10
2017-07-30T22:02:51.217Z,24.00
2017-07-30T22:05:18.569Z,23.90
2017-07-30T22:07:45.513Z,23.90
2017-07-30T22:10:12.461Z,24.00
2017-07-30T22:12:39.414Z,24.00
2017-07-30T22:15:06.354Z,23.90
2017-07-30T22:17:33.297Z,23.90
2017-07-30T22:20:00.245Z,23.90
2017-07-30T22:22:27.158Z,23.90
2017-07-30T22:24:54.062Z,23.90
2017-07-30T22:27:21.345Z,23.70
2017-07-30T22:29:48.253Z,23.80
2017-07-30T22:32:15.593Z,23.70
2017-07-30T22:34:42.541Z,23.70
2017-07-30T22:37:09.420Z,23.60
2017-07-30T22:39:36.333Z,23.60
2017-07-30T22:42:03.278Z,23.60
2017-07-30T22:44:30.157Z,23.50
2017-07-30T22:46:57.110Z,23.40
2017-07-30T22:49:23.993Z,23.30
2017-07-30T22:51:50.877Z,23.20
2017-07-30T22:54:18.191Z,23.10
2017-07-30T22:56:45.261Z,23.10
2017-07-30T22:59:12.212Z,23.00
2017-07-30T23:01:39.162Z,23.00
2017-07-30T23:04:06.102Z,23.20
2017-07-30T23:06:33.049Z,23.20
2017-07-30T23:08:59.993Z,23.20
2017-07-30T23:11:26.942Z,23.10
2017-07-30T23:13:53.893Z,23.10
2017-07-30T23:16:20.769Z,23.00
2017-07-30T23:18:47.678Z,23.00
2017-07-30T23:21:14.621Z,23.00
2017-07-30T23:23:41.569Z,22.90
2017-07-30T23:26:08.458Z,22.80
2017-07-30T23:28:35.461Z,22.70
2017-07-30T23:31:02.415Z,22.70
2017-07-30T23:33:29.309Z,22.70
2017-07-30T23:35:56.229Z,22.70
2017-07-30T23:38:23.150Z,22.70
2017-07-30T23:40:50.098Z,22.60
2017-07-30T23:43:17.413Z,22.70
2017-07-30T23:45:44.397Z,22.70
2017-07-30T23:48:11.341Z,22.80
2017-07-30T23:50:38.308Z,22.80
2017-07-30T23:53:05.645Z,22.70
2017-07-30T23:55:32.589Z,22.70
2017-07-30T23:57:59.545Z,22.60
